Time;durP1;ratioP1;P1;durP2;ratioP2;P2;SDS_P1;SDS_P2;PMS_P1;PMS_P2;Temp;Humidity;BMP_temperature;BMP_pressure;BME280_temperature;BME280_humidity;BME280_pressure;Samples;Min_cycle;Max_cycle;Signal;HPM_P1;HPM_P2
2022/01/01 00:02:18;;;;;;;220.93;120.57;;;11.50;99.90;;;;;;5158110;28;21012;-50
2022/01/01 00:04:49;;;;;;;248.97;122.13;;;11.50;99.90;;;;;;5161055;28;20482;-52
2022/01/01 00:07:20;;;;;;;190.17;97.43;;;11.50;99.90;;;;;;5152601;28;20186;-52
2022/01/01 00:09:50;;;;;;;295.33;125.23;;;11.50;99.90;;;;;;5157169;28;20432;-49
2022/01/01 00:12:21;;;;;;;220.57;105.93;;;11.50;99.90;;;;;;5141733;28;20247;-49
2022/01/01 00:14:51;;;;;;;145.40;76.13;;;11.50;99.90;;;;;;5149542;28;20213;-52
2022/01/01 00:17:22;;;;;;;164.87;78.90;;;11.50;99.90;;;;;;5149354;28;20185;-50
2022/01/01 00:19:53;;;;;;;130.33;66.73;;;11.50;99.90;;;;;;5160616;28;20259;-51
2022/01/01 00:22:23;;;;;;;180.43;82.90;;;11.50;99.90;;;;;;5169008;28;20320;-52
2022/01/01 00:24:55;;;;;;;145.30;65.83;;;11.40;99.90;;;;;;5158353;28;20173;-51
2022/01/01 00:27:25;;;;;;;145.03;64.20;;;11.50;99.90;;;;;;5158811;28;20891;-50
2022/01/01 00:29:55;;;;;;;172.83;71.57;;;11.50;99.90;;;;;;5138771;28;20567;-52
2022/01/01 00:32:26;;;;;;;173.90;70.77;;;11.40;99.90;;;;;;5156420;28;20233;-50
2022/01/01 00:34:57;;;;;;;137.73;64.73;;;11.40;99.90;;;;;;5154548;28;20188;-54
2022/01/01 00:37:27;;;;;;;147.80;61.60;;;11.40;99.90;;;;;;5163289;28;20233;-51
2022/01/01 00:39:58;;;;;;;157.70;65.50;;;11.50;99.90;;;;;;5157351;28;20200;-51
2022/01/01 00:42:28;;;;;;;116.50;51.53;;;11.50;99.90;;;;;;5158598;28;20286;-51
2022/01/01 00:44:59;;;;;;;208.77;106.50;;;11.50;99.90;;;;;;5158071;28;20316;-51
2022/01/01 00:47:30;;;;;;;102.93;51.70;;;11.50;99.90;;;;;;5154694;28;20528;-51
2022/01/01 00:50:00;;;;;;;110.90;48.33;;;11.50;99.90;;;;;;5157118;28;20181;-52
2022/01/01 00:52:31;;;;;;;72.00;37.90;;;11.60;99.90;;;;;;5144484;28;20209;-50
2022/01/01 00:55:01;;;;;;;68.23;36.87;;;11.60;99.90;;;;;;5138831;28;20181;-50
2022/01/01 00:57:32;;;;;;;95.47;40.97;;;11.50;99.90;;;;;;5139009;28;20181;-51
2022/01/01 01:00:07;;;;;;;71.10;35.13;;;11.60;99.90;;;;;;5144322;28;20192;-52
2022/01/01 01:02:37;;;;;;;90.63;41.37;;;11.60;99.90;;;;;;5164406;28;20211;-51
2022/01/01 01:05:08;;;;;;;84.07;37.60;;;11.60;99.90;;;;;;5163448;28;20515;-51
2022/01/01 01:07:39;;;;;;;96.07;43.37;;;11.60;99.90;;;;;;5146128;28;20440;-51
2022/01/01 01:10:12;;;;;;;74.60;38.07;;;11.50;99.90;;;;;;5143710;28;20319;-51
2022/01/01 01:12:46;;;;;;;107.63;42.77;;;11.60;99.90;;;;;;5160134;28;20592;-51
2022/01/01 01:15:17;;;;;;;64.93;32.40;;;11.60;99.90;;;;;;5145191;28;20451;-50
2022/01/01 01:17:50;;;;;;;49.37;28.77;;;11.60;99.90;;;;;;5147719;28;20479;-50
2022/01/01 01:20:21;;;;;;;82.30;37.53;;;11.70;99.90;;;;;;5139311;28;20503;-50
2022/01/01 01:22:51;;;;;;;85.20;39.23;;;11.70;99.90;;;;;;5155925;28;20520;-53
2022/01/01 01:25:24;;;;;;;69.67;34.97;;;11.70;99.90;;;;;;5160564;28;20535;-50
2022/01/01 01:27:56;;;;;;;51.77;30.77;;;11.60;99.90;;;;;;5163597;28;20313;-51
2022/01/01 01:30:26;;;;;;;71.23;36.07;;;11.60;99.90;;;;;;5160109;28;20514;-50
2022/01/01 01:32:57;;;;;;;51.97;28.90;;;11.70;99.90;;;;;;5144108;28;20591;-50
2022/01/01 01:35:27;;;;;;;664.80;538.33;;;11.60;99.90;;;;;;5139872;28;20217;-51
2022/01/01 01:37:58;;;;;;;74.80;38.00;;;11.70;99.90;;;;;;5165792;28;20212;-50
2022/01/01 01:40:29;;;;;;;75.67;32.40;;;11.60;99.90;;;;;;5139463;28;20193;-50
2022/01/01 01:43:07;;;;;;;52.83;28.77;;;11.50;99.90;;;;;;5164218;28;20225;-51
2022/01/01 01:45:38;;;;;;;95.17;37.87;;;11.40;99.90;;;;;;5165903;28;20439;-52
2022/01/01 01:48:08;;;;;;;58.73;30.60;;;11.50;99.90;;;;;;5155679;28;20523;-51
2022/01/01 01:50:39;;;;;;;37.90;22.80;;;11.50;99.90;;;;;;5161193;28;21019;-51
2022/01/01 01:53:11;;;;;;;32.87;23.10;;;11.50;99.90;;;;;;5163971;28;20300;-51
2022/01/01 01:55:42;;;;;;;66.30;30.17;;;11.60;99.90;;;;;;5159801;28;20220;-50
2022/01/01 01:58:13;;;;;;;54.03;27.37;;;11.60;99.90;;;;;;5144976;28;20439;-51
2022/01/01 02:03:20;;;;;;;50.73;24.43;;;11.50;99.90;;;;;;5152930;28;20216;-49
2022/01/01 02:05:52;;;;;;;59.83;26.30;;;11.50;99.90;;;;;;5159100;28;20791;-49
2022/01/01 02:08:24;;;;;;;44.00;23.37;;;11.60;99.90;;;;;;5142951;28;20642;-52
2022/01/01 02:10:55;;;;;;;52.77;25.43;;;11.50;99.90;;;;;;5158620;28;20459;-51
2022/01/01 02:13:32;;;;;;;43.40;23.67;;;11.50;99.90;;;;;;5147806;28;20888;-50
2022/01/01 02:16:31;;;;;;;66.67;30.17;;;11.50;99.90;;;;;;5165220;28;20629;-49
2022/01/01 02:19:02;;;;;;;42.57;23.10;;;11.50;99.90;;;;;;5157955;28;20437;-50
2022/01/01 02:21:33;;;;;;;59.40;25.00;;;11.50;99.90;;;;;;5161917;28;20475;-50
2022/01/01 02:24:05;;;;;;;45.47;23.70;;;11.40;99.90;;;;;;5145261;28;20774;-50
2022/01/01 02:26:35;;;;;;;51.30;23.20;;;11.40;99.90;;;;;;5145819;28;20174;-51
2022/01/01 02:29:06;;;;;;;78.17;39.43;;;11.50;99.90;;;;;;5145542;28;20581;-49
2022/01/01 02:31:36;;;;;;;38.47;23.00;;;11.50;99.90;;;;;;5138893;28;20669;-51
2022/01/01 02:34:09;;;;;;;39.50;20.80;;;11.50;99.90;;;;;;5141003;28;20232;-50
2022/01/01 02:36:42;;;;;;;51.93;26.50;;;11.50;99.90;;;;;;5142363;28;20677;-49
2022/01/01 02:39:19;;;;;;;44.33;25.17;;;11.40;99.90;;;;;;5158986;28;20442;-51
2022/01/01 02:41:52;;;;;;;41.50;22.87;;;11.50;99.90;;;;;;5156514;28;20821;-50
2022/01/01 02:44:24;;;;;;;54.50;25.20;;;11.50;99.90;;;;;;5165477;28;20465;-51
2022/01/01 02:46:56;;;;;;;42.30;22.17;;;11.50;99.90;;;;;;5144413;28;20488;-51
2022/01/01 02:49:27;;;;;;;45.80;24.57;;;11.50;99.90;;;;;;5146027;28;20455;-51
2022/01/01 02:51:57;;;;;;;51.40;26.73;;;11.50;99.90;;;;;;5137142;28;20441;-50
2022/01/01 02:54:28;;;;;;;45.47;24.20;;;11.40;99.90;;;;;;5162607;28;20234;-49
2022/01/01 02:56:58;;;;;;;44.80;23.60;;;11.40;99.90;;;;;;5142681;28;20196;-51
2022/01/01 02:59:29;;;;;;;54.20;26.60;;;11.50;99.90;;;;;;5159769;28;20204;-49
2022/01/01 03:01:59;;;;;;;68.00;27.47;;;11.50;99.90;;;;;;5163757;28;20187;-52
2022/01/01 03:04:30;;;;;;;55.83;26.40;;;11.40;99.90;;;;;;5158390;28;20189;-51
2022/01/01 03:07:01;;;;;;;54.30;26.60;;;11.40;99.90;;;;;;5150772;28;20597;-49
2022/01/01 03:09:34;;;;;;;47.90;25.10;;;11.50;99.90;;;;;;5137133;28;20177;-50
2022/01/01 03:12:08;;;;;;;52.57;27.27;;;11.40;99.90;;;;;;5161143;28;20312;-49
2022/01/01 03:14:38;;;;;;;53.43;26.30;;;11.30;99.90;;;;;;5144532;28;20995;-49
2022/01/01 03:17:09;;;;;;;53.93;26.50;;;11.40;99.90;;;;;;5159439;28;20531;-49
2022/01/01 03:19:40;;;;;;;66.63;27.00;;;11.40;99.90;;;;;;5162510;28;20177;-51
2022/01/01 03:22:10;;;;;;;56.40;26.93;;;11.40;99.90;;;;;;5162202;28;20437;-50
2022/01/01 03:24:41;;;;;;;52.90;26.47;;;11.30;99.90;;;;;;5126409;28;20264;-50
2022/01/01 03:27:11;;;;;;;53.67;27.37;;;11.40;99.90;;;;;;5143938;28;20193;-50
2022/01/01 03:29:42;;;;;;;47.60;24.03;;;11.40;99.90;;;;;;5148219;28;20204;-52
2022/01/01 03:32:12;;;;;;;34.70;20.03;;;11.30;99.90;;;;;;5160208;28;20184;-50
2022/01/01 03:34:43;;;;;;;83.67;35.83;;;11.30;99.90;;;;;;5155378;28;20181;-54
2022/01/01 03:37:14;;;;;;;115.67;50.10;;;11.30;99.90;;;;;;5155753;28;20212;-50
2022/01/01 03:39:44;;;;;;;59.63;29.27;;;11.30;99.90;;;;;;5155630;28;20313;-52
2022/01/01 03:42:15;;;;;;;38.70;21.00;;;11.30;99.90;;;;;;5156984;28;20186;-49
2022/01/01 03:44:45;;;;;;;59.30;30.10;;;11.30;99.90;;;;;;5157203;28;20498;-51
2022/01/01 03:47:16;;;;;;;38.40;21.33;;;11.10;99.90;;;;;;5163695;28;20177;-49
2022/01/01 03:49:46;;;;;;;38.50;21.13;;;11.20;99.90;;;;;;5159690;28;20189;-52
2022/01/01 03:52:17;;;;;;;39.90;19.00;;;11.20;99.90;;;;;;5160441;28;20209;-50
2022/01/01 03:54:47;;;;;;;29.83;17.60;;;11.20;99.90;;;;;;5145090;28;20177;-49
2022/01/01 03:57:20;;;;;;;36.90;17.47;;;11.20;99.90;;;;;;5158055;28;20197;-51
2022/01/01 03:59:51;;;;;;;36.60;18.53;;;11.20;99.90;;;;;;5158093;28;20184;-50
2022/01/01 04:02:21;;;;;;;46.20;20.30;;;11.20;99.90;;;;;;5160859;28;20836;-49
2022/01/01 04:04:52;;;;;;;29.40;16.13;;;11.20;99.90;;;;;;5155293;28;20259;-50
2022/01/01 04:07:22;;;;;;;30.10;16.60;;;11.20;99.90;;;;;;5166347;28;20562;-50
2022/01/01 04:09:53;;;;;;;37.57;15.43;;;11.20;99.90;;;;;;5156307;28;20185;-49
2022/01/01 04:12:25;;;;;;;49.23;28.37;;;11.20;99.90;;;;;;5156495;28;20217;-49
2022/01/01 04:14:57;;;;;;;33.63;18.40;;;11.30;99.90;;;;;;5158859;28;20240;-50
2022/01/01 04:17:27;;;;;;;31.70;16.50;;;11.20;99.90;;;;;;5160061;28;20471;-52
2022/01/01 04:19:58;;;;;;;44.20;16.30;;;11.20;99.90;;;;;;5160212;28;20518;-51
2022/01/01 04:22:28;;;;;;;34.27;17.33;;;11.20;99.90;;;;;;5160207;28;20277;-50
2022/01/01 04:24:59;;;;;;;36.00;19.60;;;11.20;99.90;;;;;;5155185;28;20581;-50
2022/01/01 04:27:29;;;;;;;45.07;15.50;;;11.20;99.90;;;;;;5161472;28;20250;-50
2022/01/01 04:30:00;;;;;;;36.20;15.37;;;11.20;99.90;;;;;;5156951;28;20273;-50
2022/01/01 04:32:30;;;;;;;28.57;14.70;;;11.20;99.90;;;;;;5144549;28;20267;-51
2022/01/01 04:35:01;;;;;;;25.30;14.57;;;11.20;99.90;;;;;;5155424;28;20185;-50
2022/01/01 04:37:32;;;;;;;22.87;13.87;;;11.30;99.90;;;;;;5159624;28;20193;-51
2022/01/01 04:40:05;;;;;;;27.03;12.70;;;11.30;99.90;;;;;;5160365;28;20191;-50
2022/01/01 04:42:35;;;;;;;28.83;12.00;;;11.30;99.90;;;;;;5162401;28;21054;-51
2022/01/01 04:45:06;;;;;;;21.80;11.17;;;11.30;99.90;;;;;;5155084;28;20440;-51
2022/01/01 04:47:37;;;;;;;19.97;11.87;;;11.30;99.90;;;;;;5158914;28;20192;-49
2022/01/01 04:50:08;;;;;;;22.13;11.57;;;11.40;99.90;;;;;;5157113;28;20840;-51
2022/01/01 04:52:38;;;;;;;24.07;12.30;;;11.40;99.90;;;;;;5157166;28;20209;-51
2022/01/01 04:55:09;;;;;;;19.97;11.90;;;11.50;99.90;;;;;;5155385;28;20196;-51
2022/01/01 04:57:40;;;;;;;26.40;12.03;;;11.50;99.90;;;;;;5154480;28;20645;-50
2022/01/01 05:00:11;;;;;;;29.67;11.17;;;11.50;99.90;;;;;;5157147;28;20192;-51
2022/01/01 05:02:42;;;;;;;19.77;12.80;;;11.50;99.90;;;;;;5160730;28;20220;-51
2022/01/01 05:05:12;;;;;;;22.33;10.93;;;11.50;99.90;;;;;;5125186;28;20432;-50
2022/01/01 05:07:43;;;;;;;14.30;10.40;;;11.60;99.90;;;;;;5157920;28;20432;-50
2022/01/01 05:10:14;;;;;;;13.63;9.63;;;11.60;99.90;;;;;;5142588;28;20240;-51
2022/01/01 05:12:44;;;;;;;27.33;10.87;;;11.60;99.90;;;;;;5160935;28;20247;-50
2022/01/01 05:15:14;;;;;;;22.50;11.43;;;11.70;99.90;;;;;;5156053;28;20189;-50
2022/01/01 05:17:45;;;;;;;20.67;12.80;;;11.70;99.90;;;;;;5157370;28;20193;-51
2022/01/01 05:20:16;;;;;;;29.23;16.30;;;11.70;99.90;;;;;;5156368;28;20185;-50
2022/01/01 05:22:47;;;;;;;27.73;14.40;;;11.80;99.90;;;;;;5162334;28;20228;-51
2022/01/01 05:25:17;;;;;;;34.27;17.10;;;11.80;99.90;;;;;;5158740;28;20181;-50
2022/01/01 05:27:48;;;;;;;28.83;16.97;;;11.80;99.90;;;;;;5162784;28;20567;-49
2022/01/01 05:30:18;;;;;;;27.17;18.27;;;11.80;99.90;;;;;;5159464;28;20211;-51
2022/01/01 05:32:49;;;;;;;34.63;16.50;;;11.80;99.90;;;;;;5158316;28;20305;-50
2022/01/01 05:35:19;;;;;;;30.10;16.60;;;11.80;99.90;;;;;;5160027;28;20272;-50
2022/01/01 05:37:50;;;;;;;29.70;17.17;;;11.80;99.90;;;;;;5161891;28;20204;-50
2022/01/01 05:40:20;;;;;;;40.20;19.77;;;11.80;99.90;;;;;;5161564;28;20188;-51
2022/01/01 05:42:51;;;;;;;39.73;18.70;;;11.80;99.90;;;;;;5160203;28;20235;-50
2022/01/01 05:45:21;;;;;;;29.77;17.37;;;11.80;99.90;;;;;;5145719;28;20182;-51
2022/01/01 05:47:52;;;;;;;34.10;18.43;;;11.80;99.90;;;;;;5163311;28;20208;-51
2022/01/01 05:50:23;;;;;;;35.33;20.17;;;11.80;99.90;;;;;;5154540;28;20200;-51
2022/01/01 05:52:54;;;;;;;34.10;18.13;;;11.80;99.90;;;;;;5164483;28;20232;-51
2022/01/01 05:55:24;;;;;;;34.43;19.90;;;11.80;99.90;;;;;;5146783;28;20437;-51
2022/01/01 05:57:55;;;;;;;37.93;20.60;;;11.90;99.90;;;;;;5163313;28;20208;-50
2022/01/01 06:00:25;;;;;;;42.40;21.07;;;11.80;99.90;;;;;;5161961;28;20231;-51
2022/01/01 06:02:57;;;;;;;39.33;19.70;;;11.80;99.90;;;;;;5161492;28;20217;-50
2022/01/01 06:05:29;;;;;;;29.57;18.67;;;11.80;99.90;;;;;;5141964;28;20483;-51
2022/01/01 06:08:00;;;;;;;34.80;21.77;;;11.80;99.90;;;;;;5157187;28;20507;-50
2022/01/01 06:10:30;;;;;;;35.30;19.37;;;11.80;99.90;;;;;;5160785;28;20432;-51
2022/01/01 06:13:05;;;;;;;35.00;16.50;;;11.80;99.90;;;;;;5147203;28;20456;-52
2022/01/01 06:15:35;;;;;;;32.40;18.47;;;11.90;99.90;;;;;;5162561;28;20211;-51
2022/01/01 06:18:07;;;;;;;31.57;18.10;;;11.80;99.90;;;;;;5132971;28;20490;-50
2022/01/01 06:20:37;;;;;;;30.80;15.10;;;11.80;99.90;;;;;;5148019;28;20629;-51
2022/01/01 06:23:08;;;;;;;30.27;15.83;;;11.90;99.90;;;;;;5159002;28;20471;-52
2022/01/01 06:25:39;;;;;;;30.93;16.23;;;11.90;99.90;;;;;;5156884;28;20659;-51
2022/01/01 06:28:09;;;;;;;32.27;17.80;;;11.90;99.90;;;;;;5150522;28;20192;-51
2022/01/01 06:30:40;;;;;;;30.83;15.90;;;11.80;99.90;;;;;;5162202;28;20181;-50
2022/01/01 06:33:16;;;;;;;39.43;20.27;;;11.80;99.90;;;;;;5160023;28;20300;-53
2022/01/01 06:35:48;;;;;;;32.60;17.73;;;11.80;99.90;;;;;;5164465;28;20176;-53
2022/01/01 06:38:19;;;;;;;26.40;16.07;;;11.90;99.90;;;;;;5160419;28;20804;-51
2022/01/01 06:40:49;;;;;;;27.47;14.87;;;11.80;99.90;;;;;;5138646;28;20444;-50
2022/01/01 06:43:23;;;;;;;28.27;13.57;;;11.80;99.90;;;;;;5168412;28;20216;-50
2022/01/01 06:45:53;;;;;;;23.83;14.47;;;11.80;99.90;;;;;;5154955;28;20170;-52
2022/01/01 06:48:24;;;;;;;24.60;13.87;;;11.90;99.90;;;;;;5130420;28;21944;-50
2022/01/01 06:50:54;;;;;;;26.80;14.80;;;11.90;99.90;;;;;;5159668;28;20181;-51
2022/01/01 06:53:25;;;;;;;25.33;11.87;;;11.90;99.90;;;;;;5142629;28;20209;-50
2022/01/01 06:55:55;;;;;;;20.87;13.07;;;11.90;99.90;;;;;;5161858;28;20188;-50
2022/01/01 06:58:27;;;;;;;32.43;13.67;;;11.80;99.90;;;;;;5162962;28;21906;-51
2022/01/01 07:00:57;;;;;;;20.10;12.17;;;11.90;99.90;;;;;;5163245;28;20189;-51
2022/01/01 07:03:28;;;;;;;33.40;11.93;;;12.00;99.90;;;;;;5163568;28;20472;-51
2022/01/01 07:05:59;;;;;;;27.20;13.10;;;11.90;99.90;;;;;;5161238;28;20184;-51
2022/01/01 07:08:30;;;;;;;27.63;13.57;;;11.90;99.90;;;;;;5160247;28;20223;-50
2022/01/01 07:11:00;;;;;;;31.63;14.50;;;12.00;99.90;;;;;;5162491;28;20824;-50
2022/01/01 07:13:31;;;;;;;29.20;14.57;;;12.00;99.90;;;;;;5161779;28;20645;-51
2022/01/01 07:16:01;;;;;;;27.30;12.30;;;12.00;99.90;;;;;;5147376;28;20277;-50
2022/01/01 07:18:32;;;;;;;28.30;12.10;;;11.90;99.90;;;;;;5128820;28;20268;-52
2022/01/01 07:21:03;;;;;;;27.87;14.70;;;11.90;99.90;;;;;;5129073;28;20544;-51
2022/01/01 07:23:33;;;;;;;31.37;13.43;;;11.90;99.90;;;;;;5159979;28;20697;-50
2022/01/01 07:26:04;;;;;;;26.97;13.93;;;12.00;99.90;;;;;;5147549;28;20189;-51
2022/01/01 07:28:34;;;;;;;25.57;15.30;;;11.90;99.90;;;;;;5158243;28;20247;-51
2022/01/01 07:31:05;;;;;;;46.47;15.90;;;11.90;99.90;;;;;;5155001;28;20322;-52
2022/01/01 07:33:35;;;;;;;46.30;17.03;;;11.90;99.90;;;;;;5162590;28;20296;-51
2022/01/01 07:36:06;;;;;;;35.00;17.17;;;11.90;99.90;;;;;;5164421;28;20207;-51
2022/01/01 07:38:37;;;;;;;32.27;16.80;;;11.90;99.90;;;;;;5160859;28;20184;-50
2022/01/01 07:41:08;;;;;;;28.43;16.23;;;12.00;99.90;;;;;;5160724;28;20205;-51
2022/01/01 07:43:38;;;;;;;29.87;16.40;;;11.90;99.90;;;;;;5161981;28;20502;-50
2022/01/01 07:46:09;;;;;;;36.07;16.10;;;11.90;99.90;;;;;;5161715;28;20193;-50
2022/01/01 07:48:39;;;;;;;32.23;15.63;;;11.90;99.90;;;;;;5167512;28;20641;-50
2022/01/01 07:51:10;;;;;;;23.37;14.57;;;11.90;99.90;;;;;;5158745;28;20268;-52
2022/01/01 07:53:40;;;;;;;30.50;14.17;;;12.00;99.90;;;;;;5143859;28;20204;-52
2022/01/01 07:56:11;;;;;;;31.40;14.10;;;12.00;99.90;;;;;;5151617;28;20235;-50
2022/01/01 07:58:41;;;;;;;27.63;14.97;;;12.00;99.90;;;;;;5160987;28;20927;-50
2022/01/01 08:01:12;;;;;;;25.63;13.40;;;12.00;99.90;;;;;;5155648;28;20189;-49
2022/01/01 08:03:49;;;;;;;36.57;13.53;;;12.00;99.90;;;;;;5152470;28;20251;-50
2022/01/01 08:06:20;;;;;;;33.23;12.80;;;12.00;99.90;;;;;;5160258;28;20256;-50
2022/01/01 08:08:50;;;;;;;19.20;12.33;;;12.00;99.90;;;;;;5157913;28;20535;-49
2022/01/01 08:11:21;;;;;;;23.63;12.97;;;12.00;99.90;;;;;;5162094;28;20192;-49
2022/01/01 08:13:53;;;;;;;24.60;12.77;;;12.00;99.90;;;;;;5157940;28;20213;-49
2022/01/01 08:16:23;;;;;;;39.20;15.00;;;12.00;99.90;;;;;;5143001;28;20253;-50
2022/01/01 08:18:54;;;;;;;20.53;12.03;;;12.00;99.90;;;;;;5158273;28;20462;-52
2022/01/01 08:21:24;;;;;;;23.03;12.33;;;12.00;99.90;;;;;;5159029;28;20193;-49
2022/01/01 08:23:55;;;;;;;23.90;12.40;;;12.00;99.90;;;;;;5156898;28;20228;-50
2022/01/01 08:26:25;;;;;;;30.27;12.20;;;12.00;99.90;;;;;;5159526;28;20181;-51
2022/01/01 08:28:56;;;;;;;24.20;13.63;;;12.00;99.90;;;;;;5133495;28;20713;-50
2022/01/01 08:31:26;;;;;;;31.20;12.73;;;12.00;99.90;;;;;;5151553;28;20178;-49
2022/01/01 08:33:57;;;;;;;29.27;14.00;;;12.00;99.90;;;;;;5137686;28;20284;-50
2022/01/01 08:36:27;;;;;;;31.97;13.37;;;12.00;99.90;;;;;;5156907;28;20177;-51
2022/01/01 08:38:58;;;;;;;26.53;12.50;;;12.00;99.90;;;;;;5165801;28;20193;-51
2022/01/01 08:41:28;;;;;;;30.50;12.70;;;12.10;99.90;;;;;;5160682;28;20282;-50
2022/01/01 08:43:59;;;;;;;28.10;12.97;;;12.10;99.90;;;;;;5154982;28;20240;-51
2022/01/01 08:46:29;;;;;;;27.33;13.30;;;12.20;99.90;;;;;;5139342;28;20252;-51
2022/01/01 08:49:00;;;;;;;27.80;12.40;;;12.20;99.90;;;;;;5143230;28;20185;-51
2022/01/01 08:51:32;;;;;;;31.40;12.87;;;12.30;99.90;;;;;;5139926;28;20180;-50
2022/01/01 08:54:03;;;;;;;24.97;12.27;;;12.20;99.90;;;;;;5159634;28;20494;-50
2022/01/01 08:56:33;;;;;;;26.40;11.33;;;12.20;99.90;;;;;;5159636;28;20523;-49
2022/01/01 08:59:04;;;;;;;23.50;12.73;;;12.20;99.90;;;;;;5135787;28;20519;-51
2022/01/01 09:01:35;;;;;;;24.33;12.10;;;12.30;99.90;;;;;;5155056;28;20193;-49
2022/01/01 09:04:05;;;;;;;20.20;11.83;;;12.30;99.90;;;;;;5153316;28;20275;-50
2022/01/01 09:06:36;;;;;;;23.63;11.97;;;12.30;99.90;;;;;;5155851;28;20259;-50
2022/01/01 09:09:07;;;;;;;40.00;12.40;;;12.30;99.90;;;;;;5155973;28;20209;-50
2022/01/01 09:11:37;;;;;;;30.13;13.27;;;12.40;99.90;;;;;;5155988;28;20177;-49
2022/01/01 09:14:08;;;;;;;16.37;10.47;;;12.40;99.90;;;;;;5161952;28;20204;-50
2022/01/01 09:16:38;;;;;;;27.03;12.30;;;12.50;99.90;;;;;;5144424;28;20198;-52
2022/01/01 09:19:09;;;;;;;24.10;12.70;;;12.50;99.90;;;;;;5157242;28;20200;-52
2022/01/01 09:21:39;;;;;;;28.03;12.43;;;12.50;99.90;;;;;;5158913;28;20185;-51
2022/01/01 09:24:10;;;;;;;26.50;13.17;;;12.50;99.90;;;;;;5147649;28;20263;-49
2022/01/01 09:26:40;;;;;;;28.10;11.97;;;12.60;99.90;;;;;;5160839;28;20189;-52
2022/01/01 09:29:11;;;;;;;33.00;13.00;;;12.50;99.90;;;;;;5156119;28;20228;-49
2022/01/01 09:31:43;;;;;;;27.17;15.33;;;12.50;99.90;;;;;;5161338;28;20671;-51
2022/01/01 09:34:14;;;;;;;24.70;12.30;;;12.50;99.90;;;;;;5161748;28;20589;-52
2022/01/01 09:36:47;;;;;;;33.37;11.90;;;12.70;99.90;;;;;;5162611;28;20555;-51
2022/01/01 09:39:18;;;;;;;30.60;12.73;;;12.60;99.90;;;;;;5159112;28;20527;-51
2022/01/01 09:41:48;;;;;;;31.20;12.50;;;12.60;99.90;;;;;;5162346;28;20888;-50
2022/01/01 09:44:20;;;;;;;34.63;13.87;;;12.60;99.90;;;;;;5143958;28;20231;-51
2022/01/01 09:46:51;;;;;;;27.93;12.37;;;12.60;99.90;;;;;;5158374;28;20173;-50
2022/01/01 09:49:21;;;;;;;25.27;12.10;;;12.50;99.90;;;;;;5169937;23;20511;-52
2022/01/01 09:51:52;;;;;;;25.10;13.10;;;12.60;99.90;;;;;;5146982;28;20180;-52
2022/01/01 09:54:23;;;;;;;29.77;14.53;;;12.70;99.90;;;;;;5141955;28;20181;-53
2022/01/01 09:56:53;;;;;;;27.47;14.70;;;12.60;99.90;;;;;;5128388;28;20189;-54
2022/01/01 09:59:24;;;;;;;25.70;12.70;;;12.60;99.90;;;;;;5140592;28;20210;-55
2022/01/01 10:01:54;;;;;;;30.77;12.53;;;12.60;99.90;;;;;;5124171;28;20376;-54
2022/01/01 10:04:25;;;;;;;34.87;13.13;;;12.60;99.90;;;;;;5144999;28;20220;-52
2022/01/01 10:07:05;;;;;;;33.60;13.10;;;12.60;99.90;;;;;;5125435;28;20324;-53
2022/01/01 10:09:37;;;;;;;36.77;13.43;;;12.60;99.90;;;;;;5143718;28;20684;-52
2022/01/01 10:12:10;;;;;;;33.40;14.03;;;12.60;99.90;;;;;;5106560;28;20491;-54
2022/01/01 10:14:45;;;;;;;24.13;13.90;;;12.50;99.90;;;;;;5126855;28;20436;-54
2022/01/01 10:17:18;;;;;;;22.50;12.80;;;12.50;99.90;;;;;;5124523;28;20429;-52
2022/01/01 10:19:53;;;;;;;35.90;14.90;;;12.50;99.90;;;;;;5128593;28;20444;-53
2022/01/01 10:22:24;;;;;;;31.00;15.37;;;12.50;99.90;;;;;;5122473;28;20448;-53
2022/01/01 10:27:55;;;;;;;27.70;14.23;;;12.70;99.90;;;;;;5138160;28;20815;-54
2022/01/01 10:30:38;;;;;;;36.67;14.97;;;12.70;99.90;;;;;;5135233;28;20453;-53
2022/01/01 10:33:18;;;;;;;45.17;14.07;;;12.70;99.90;;;;;;5138512;28;20453;-54
2022/01/01 10:35:52;;;;;;;30.73;14.70;;;12.70;99.90;;;;;;5136612;28;20455;-52
2022/01/01 10:38:28;;;;;;;29.17;14.90;;;12.80;99.90;;;;;;5136633;28;20536;-52
2022/01/01 10:41:07;;;;;;;31.90;14.83;;;12.80;99.90;;;;;;5131945;28;20436;-52
2022/01/01 10:43:43;;;;;;;42.10;14.90;;;12.90;99.90;;;;;;5140958;28;20471;-52
2022/01/01 10:46:19;;;;;;;36.10;14.70;;;12.80;99.90;;;;;;5142319;28;20417;-52
2022/01/01 10:48:57;;;;;;;36.53;16.27;;;12.70;99.90;;;;;;5139860;28;20472;-52
2022/01/01 10:51:37;;;;;;;32.40;16.63;;;12.70;99.90;;;;;;5122635;28;20940;-51
2022/01/01 10:54:10;;;;;;;28.40;14.17;;;12.60;99.90;;;;;;5126986;28;20452;-56
2022/01/01 10:56:40;;;;;;;27.80;15.43;;;12.60;99.90;;;;;;5142280;28;20436;-53
2022/01/01 10:59:12;;;;;;;30.03;15.27;;;12.60;99.90;;;;;;5126543;28;20465;-52
2022/01/01 11:01:44;;;;;;;40.03;16.93;;;12.60;99.90;;;;;;5133673;28;20183;-53
2022/01/01 11:04:16;;;;;;;37.83;16.27;;;12.60;99.90;;;;;;5125115;28;20606;-53
2022/01/01 11:06:47;;;;;;;36.57;15.60;;;12.70;99.90;;;;;;5136350;28;20433;-53
2022/01/01 11:09:18;;;;;;;32.43;14.80;;;12.70;99.90;;;;;;5135531;28;20457;-51
2022/01/01 11:11:50;;;;;;;49.70;16.63;;;12.70;99.90;;;;;;5114681;28;20193;-54
2022/01/01 11:14:21;;;;;;;44.70;15.90;;;12.60;99.90;;;;;;5133157;28;20464;-52
2022/01/01 11:16:53;;;;;;;22.67;13.73;;;12.60;99.90;;;;;;5136879;28;20453;-52
2022/01/01 11:19:24;;;;;;;32.47;15.73;;;12.70;99.90;;;;;;5123684;28;20839;-51
2022/01/01 11:21:55;;;;;;;54.10;16.23;;;12.80;99.90;;;;;;5125557;28;20503;-52
2022/01/01 11:24:27;;;;;;;32.23;14.80;;;12.80;99.90;;;;;;5124455;28;20996;-53
2022/01/01 11:26:58;;;;;;;38.77;14.20;;;12.80;99.90;;;;;;5106592;28;20178;-53
2022/01/01 11:29:29;;;;;;;32.33;15.37;;;12.80;99.90;;;;;;5121380;28;20461;-52
2022/01/01 11:32:02;;;;;;;35.63;13.93;;;12.80;99.90;;;;;;5134244;28;20436;-51
2022/01/01 11:34:38;;;;;;;34.10;15.50;;;12.90;99.90;;;;;;5137458;28;21150;-52
2022/01/01 11:37:14;;;;;;;25.40;13.67;;;12.80;99.90;;;;;;5139768;28;20451;-52
2022/01/01 11:39:45;;;;;;;32.20;15.30;;;12.90;99.90;;;;;;5134528;28;20526;-53
2022/01/01 11:42:16;;;;;;;28.27;15.13;;;12.90;99.90;;;;;;5140605;28;20444;-52
2022/01/01 11:44:54;;;;;;;28.23;14.63;;;13.00;99.90;;;;;;5142474;28;20215;-52
2022/01/01 11:47:25;;;;;;;37.00;15.57;;;13.10;99.90;;;;;;5125244;28;20189;-52
2022/01/01 11:49:58;;;;;;;30.67;14.37;;;13.10;99.90;;;;;;5138044;28;20476;-53
2022/01/01 11:52:42;;;;;;;36.57;14.20;;;13.10;99.90;;;;;;5141593;28;20181;-52
2022/01/01 11:55:15;;;;;;;51.67;16.20;;;13.20;99.90;;;;;;5141588;28;20578;-53
2022/01/01 11:57:57;;;;;;;37.30;16.47;;;13.20;99.90;;;;;;5140692;28;20452;-52
2022/01/01 12:00:27;;;;;;;30.23;16.33;;;13.30;99.90;;;;;;5139181;28;20513;-52
2022/01/01 12:03:14;;;;;;;29.97;14.90;;;13.20;99.90;;;;;;5123715;28;20472;-52
2022/01/01 12:06:02;;;;;;;50.93;23.30;;;13.20;99.90;;;;;;5119823;28;20546;-53
2022/01/01 12:08:46;;;;;;;33.07;15.27;;;13.20;99.90;;;;;;5140011;28;20500;-53
2022/01/01 12:11:33;;;;;;;28.53;14.50;;;13.20;99.90;;;;;;5122927;28;20440;-53
2022/01/01 12:14:04;;;;;;;31.60;14.00;;;13.20;99.90;;;;;;5141178;28;20456;-52
2022/01/01 12:16:49;;;;;;;26.13;13.33;;;13.10;99.90;;;;;;5125279;28;20445;-53
2022/01/01 12:19:22;;;;;;;33.13;14.10;;;13.10;99.90;;;;;;5137691;28;20698;-52
2022/01/01 12:22:02;;;;;;;37.40;14.73;;;13.10;99.90;;;;;;5120713;28;20861;-54
2022/01/01 12:24:38;;;;;;;43.73;15.47;;;13.20;99.90;;;;;;5125201;28;20506;-53
2022/01/01 12:27:13;;;;;;;25.30;14.87;;;13.10;99.90;;;;;;5138466;28;20528;-52
2022/01/01 12:29:44;;;;;;;30.30;13.80;;;13.10;99.90;;;;;;5132054;28;21115;-53
2022/01/01 12:32:35;;;;;;;30.87;14.03;;;13.00;99.90;;;;;;5140425;28;20421;-51
2022/01/01 12:35:08;;;;;;;30.63;13.23;;;13.00;99.90;;;;;;5139108;28;20205;-53
2022/01/01 12:37:39;;;;;;;45.40;14.97;;;13.10;99.90;;;;;;5142063;28;20503;-52
2022/01/01 12:40:11;;;;;;;25.90;12.70;;;13.00;99.90;;;;;;5134672;28;20487;-53
2022/01/01 12:42:46;;;;;;;34.17;14.87;;;13.10;99.90;;;;;;5138383;28;20553;-53
2022/01/01 12:45:17;;;;;;;31.33;14.60;;;13.00;99.90;;;;;;5136440;28;20454;-52
2022/01/01 12:47:47;;;;;;;26.00;14.80;;;13.00;99.90;;;;;;5139533;28;20425;-52
2022/01/01 12:50:18;;;;;;;35.97;16.67;;;13.00;99.90;;;;;;5122867;28;20206;-52
2022/01/01 12:52:54;;;;;;;29.83;15.70;;;13.00;99.90;;;;;;5125492;28;20193;-52
2022/01/01 12:55:25;;;;;;;39.43;14.30;;;13.00;99.90;;;;;;5137707;28;20280;-53